createdAt,value
2023-05-02T00:04:28.542Z,66396.94
2023-05-02T00:09:32.231Z,66335.25
2023-05-02T00:14:36.030Z,66366.91
2023-05-02T00:19:41.312Z,66349.28
2023-05-02T00:24:45.001Z,66321.75
2023-05-02T00:29:48.901Z,66302.50
2023-05-02T00:34:54.295Z,66299.91
2023-05-02T00:39:58.218Z,66301.19
2023-05-02T00:45:02.216Z,66308.97
2023-05-02T00:50:08.142Z,66269.72
2023-05-02T00:55:11.882Z,66327.09
2023-05-02T01:00:15.958Z,66297.16
2023-05-02T01:05:23.640Z,66312.72
2023-05-02T01:10:31.985Z,66318.78
2023-05-02T01:15:36.708Z,66283.81
2023-05-02T01:20:43.621Z,66239.66
2023-05-02T01:25:56.718Z,66185.44
2023-05-02T01:31:04.623Z,66186.69
2023-05-02T01:36:08.734Z,66215.63
2023-05-02T01:41:13.450Z,66126.66
2023-05-02T01:46:19.744Z,66160.94
2023-05-02T01:51:25.081Z,66146.50
2023-05-02T01:56:30.689Z,66062.22
2023-05-02T02:01:36.511Z,65910.75
2023-05-02T02:06:40.696Z,65919.41
2023-05-02T02:11:45.753Z,65893.28
2023-05-02T02:16:52.276Z,66030.59
2023-05-02T02:21:57.281Z,65937.78
2023-05-02T02:27:01.077Z,66052.56
2023-05-02T02:32:06.314Z,66112.84
2023-05-02T02:37:11.921Z,66165.16
2023-05-02T02:42:17.516Z,66148.53
2023-05-02T02:47:26.251Z,66064.53
2023-05-02T02:52:35.082Z,65986.91
2023-05-02T02:57:40.911Z,65903.34
2023-05-02T03:02:49.147Z,65999.75
2023-05-02T03:07:55.795Z,66102.47
2023-05-02T03:13:01.991Z,66118.63
2023-05-02T03:18:09.715Z,66087.03
2023-05-02T03:23:16.378Z,66088.47
2023-05-02T03:28:23.244Z,66096.75
2023-05-02T03:33:33.315Z,66191.94
2023-05-02T03:38:40.057Z,66180.25
2023-05-02T03:43:50.011Z,66216.69
2023-05-02T03:49:01.135Z,66246.28
2023-05-02T03:54:08.156Z,66225.91
2023-05-02T03:59:16.438Z,66272.41
2023-05-02T04:04:25.672Z,66273.53
2023-05-02T04:09:33.941Z,66318.16
2023-05-02T04:14:49.978Z,66329.34
2023-05-02T04:19:58.589Z,66347.56
2023-05-02T04:25:07.767Z,66369.03
2023-05-02T04:30:16.234Z,66385.59
2023-05-02T04:35:31.198Z,66444.22
2023-05-02T04:40:38.351Z,66338.44
2023-05-02T04:45:46.164Z,66243.41
2023-05-02T04:51:01.836Z,66377.63
2023-05-02T04:56:10.062Z,66436.72
2023-05-02T05:01:17.656Z,66520.41
2023-05-02T05:06:27.061Z,66524.25
2023-05-02T05:11:33.492Z,66456.03
2023-05-02T05:16:38.888Z,66493.00
2023-05-02T05:21:46.212Z,66513.44
2023-05-02T05:26:55.341Z,66487.19
2023-05-02T05:32:02.289Z,66515.50
2023-05-02T05:37:10.303Z,66596.13
2023-05-02T05:42:17.500Z,66743.22
2023-05-02T05:47:27.558Z,66799.72
2023-05-02T05:52:35.762Z,66867.91
2023-05-02T05:57:42.852Z,66782.88
2023-05-02T06:02:49.744Z,66741.44
2023-05-02T06:08:09.090Z,66775.34
2023-05-02T06:13:15.567Z,66777.53
2023-05-02T06:18:23.287Z,66817.34
2023-05-02T06:23:31.130Z,66891.75
2023-05-02T06:28:37.956Z,66915.88
2023-05-02T06:33:44.477Z,66956.81
2023-05-02T06:38:55.827Z,67004.41
2023-05-02T06:44:02.294Z,67069.06
2023-05-02T06:49:09.100Z,67170.66
2023-05-02T06:54:16.298Z,67180.81
2023-05-02T06:59:21.457Z,67184.56
2023-05-02T07:04:27.814Z,67275.34
2023-05-02T07:09:35.751Z,67295.78
2023-05-02T07:14:42.162Z,67262.78
2023-05-02T07:19:48.672Z,67251.44
2023-05-02T07:25:01.244Z,67299.50
2023-05-02T07:30:08.290Z,67253.59
2023-05-02T07:35:13.790Z,67228.88
2023-05-02T07:40:21.468Z,67182.47
2023-05-02T07:45:28.081Z,67171.13
2023-05-02T07:50:34.292Z,67242.38
2023-05-02T07:55:42.319Z,67209.97
2023-05-02T08:00:48.941Z,67315.28
2023-05-02T08:05:55.097Z,67366.03
2023-05-02T08:11:02.970Z,67423.97
2023-05-02T08:16:09.922Z,67310.44
2023-05-02T08:21:15.877Z,67463.91
2023-05-02T08:26:25.376Z,67396.31
2023-05-02T08:31:31.809Z,67400.16
2023-05-02T08:36:38.687Z,67430.94
2023-05-02T08:41:46.340Z,67479.59
2023-05-02T08:46:52.963Z,67563.03
2023-05-02T08:52:00.279Z,67474.66
2023-05-02T08:57:07.353Z,67436.44
2023-05-02T09:02:15.363Z,67449.91
2023-05-02T09:07:21.454Z,67428.72
2023-05-02T09:12:28.525Z,67473.09
2023-05-02T09:17:41.213Z,67502.31
2023-05-02T09:22:52.933Z,67630.16
2023-05-02T09:28:01.643Z,67540.75
2023-05-02T09:33:05.737Z,67538.50
2023-05-02T09:38:21.028Z,67476.22
2023-05-02T09:43:27.967Z,67460.06
2023-05-02T09:48:33.716Z,67580.72
2023-05-02T09:53:45.584Z,67576.97
2023-05-02T09:58:52.646Z,67606.22
2023-05-02T10:03:59.231Z,67605.16
2023-05-02T10:09:05.826Z,67592.25
2023-05-02T10:14:14.406Z,67689.13
2023-05-02T10:19:22.369Z,67695.03
2023-05-02T10:24:29.060Z,67642.59
2023-05-02T10:29:35.118Z,67694.53
2023-05-02T10:34:40.252Z,67639.34
2023-05-02T10:39:45.733Z,67644.59
2023-05-02T10:44:52.504Z,67727.03
2023-05-02T10:49:59.319Z,67686.97
2023-05-02T10:55:22.173Z,67711.88
2023-05-02T11:00:30.977Z,67669.56
2023-05-02T11:05:57.090Z,67886.41
2023-05-02T11:11:18.121Z,67913.50
2023-05-02T11:16:25.868Z,67771.41
2023-05-02T11:21:33.445Z,67718.25
2023-05-02T11:26:40.042Z,67651.22
2023-05-02T11:32:04.486Z,67502.38
2023-05-02T11:37:16.040Z,67414.22
2023-05-02T11:42:31.746Z,67345.03
2023-05-02T11:47:39.235Z,67338.56
2023-05-02T11:52:47.732Z,67363.41
2023-05-02T11:57:53.401Z,67224.34
2023-05-02T12:02:59.894Z,67364.97
2023-05-02T12:08:07.928Z,67523.41
2023-05-02T12:13:15.149Z,67532.63
2023-05-02T12:18:23.940Z,67774.78
2023-05-02T12:23:30.381Z,67905.91
2023-05-02T12:28:50.990Z,68055.56
2023-05-02T12:33:58.397Z,68095.78
2023-05-02T12:39:06.634Z,68132.22
2023-05-02T12:44:12.932Z,68026.34
2023-05-02T12:49:19.638Z,67750.78
2023-05-02T12:54:27.525Z,67549.31
2023-05-02T12:59:34.540Z,67475.78
2023-05-02T13:04:42.729Z,66945.66
2023-05-02T13:09:50.667Z,66668.25
2023-05-02T13:14:57.310Z,66778.06
2023-05-02T13:20:02.854Z,67039.47
2023-05-02T13:25:10.728Z,67151.06
2023-05-02T13:30:16.347Z,67259.63
2023-05-02T13:35:22.173Z,67295.78
2023-05-02T13:40:29.336Z,67264.53
2023-05-02T13:45:34.954Z,67140.38
2023-05-02T13:50:40.183Z,67059.38
2023-05-02T13:55:47.246Z,67058.88
2023-05-02T14:00:53.487Z,67282.81
2023-05-02T14:05:59.879Z,67337.47
2023-05-02T14:11:07.594Z,67309.91
2023-05-02T14:16:13.552Z,67317.47
2023-05-02T14:21:19.716Z,67397.34
2023-05-02T14:26:27.333Z,67275.88
2023-05-02T14:31:34.133Z,67236.47
2023-05-02T14:36:40.494Z,67310.44
2023-05-02T14:41:48.378Z,67283.38
2023-05-02T14:46:57.258Z,67165.03
2023-05-02T14:52:03.782Z,67087.88
2023-05-02T14:57:11.930Z,67116.47
2023-05-02T15:02:17.527Z,67135.41
2023-05-02T15:07:23.347Z,67130.50
2023-05-02T15:12:31.447Z,67072.91
2023-05-02T15:17:37.993Z,67055.56
2023-05-02T15:22:44.105Z,67199.19
2023-05-02T15:27:52.267Z,67347.72
2023-05-02T15:32:58.566Z,67282.69
2023-05-02T15:38:03.624Z,67333.16
2023-05-02T15:43:10.912Z,67305.03
2023-05-02T15:48:17.352Z,67276.88
2023-05-02T15:53:23.831Z,67297.41
2023-05-02T15:58:30.767Z,67246.66
2023-05-02T16:03:37.162Z,67184.06
2023-05-02T16:08:42.372Z,67286.00
2023-05-02T16:13:49.436Z,67306.06
2023-05-02T16:18:55.518Z,67119.75
2023-05-02T16:24:00.552Z,67035.06
2023-05-02T16:29:07.389Z,67009.13
2023-05-02T16:34:13.332Z,67037.78
2023-05-02T16:39:19.407Z,67011.94
2023-05-02T16:44:27.376Z,67021.72
2023-05-02T16:49:32.248Z,67083.09
2023-05-02T16:54:36.056Z,67131.66
2023-05-02T16:59:41.167Z,67085.78
2023-05-02T17:04:44.886Z,66997.94
2023-05-02T17:09:48.628Z,66965.00
2023-05-02T17:14:53.823Z,66993.53
2023-05-02T17:19:57.566Z,66996.16
2023-05-02T17:25:01.483Z,66976.38
2023-05-02T17:30:07.516Z,66899.22
2023-05-02T17:35:11.702Z,67008.31
2023-05-02T17:40:15.460Z,66894.91
2023-05-02T17:45:20.576Z,66931.03
2023-05-02T17:50:24.190Z,66920.22
2023-05-02T17:55:27.861Z,66932.56
2023-05-02T18:22:28.029Z,66511.81
2023-05-02T18:27:32.052Z,66467.78
2023-05-02T18:32:36.206Z,66528.47
2023-05-02T18:37:41.564Z,66506.34
2023-05-02T18:42:45.507Z,66582.25
2023-05-02T18:47:51.080Z,66612.88
2023-05-02T18:52:56.441Z,66629.00
2023-05-02T18:58:00.359Z,66620.41
2023-05-02T19:03:04.665Z,66573.72
2023-05-02T19:08:10.552Z,66631.78
2023-05-02T19:13:14.646Z,66595.13
2023-05-02T19:18:18.721Z,66545.13
2023-05-02T19:23:24.356Z,66532.78
2023-05-02T19:28:28.411Z,66513.88
2023-05-02T19:33:32.382Z,66581.59
2023-05-02T19:38:37.702Z,66648.91
2023-05-02T19:43:41.625Z,66681.16
2023-05-02T19:48:46.748Z,66570.41
2023-05-02T19:53:53.024Z,66554.13
2023-05-02T19:58:56.980Z,66569.25
2023-05-02T20:04:01.369Z,66599.44
2023-05-02T20:09:06.737Z,66605.34
2023-05-02T20:14:10.657Z,66642.47
2023-05-02T20:19:14.810Z,66590.22
2023-05-02T20:24:20.352Z,66661.81
2023-05-02T20:29:24.851Z,66596.28
2023-05-02T20:34:28.817Z,66594.66
2023-05-02T20:39:34.192Z,66560.19
2023-05-02T20:44:39.161Z,66636.53
2023-05-02T20:49:43.241Z,66591.81
2023-05-02T20:54:49.443Z,66517.19
2023-05-02T20:59:53.516Z,66570.41
2023-05-02T21:04:57.605Z,66567.63
2023-05-02T21:10:03.061Z,66503.75
2023-05-02T21:15:08.612Z,66485.13
2023-05-02T21:20:13.727Z,66487.03
2023-05-02T21:25:19.099Z,66496.22
2023-05-02T21:30:24.413Z,66546.13
2023-05-02T21:35:28.811Z,66506.91
2023-05-02T21:40:38.928Z,66513.88
2023-05-02T21:45:46.815Z,66490.34
2023-05-02T21:50:51.016Z,66518.81
2023-05-02T21:55:56.341Z,66590.75
2023-05-02T22:01:00.936Z,66554.19
2023-05-02T22:06:06.713Z,66572.56
2023-05-02T22:11:12.077Z,66553.34
2023-05-02T22:16:17.204Z,66498.47
2023-05-02T22:21:21.664Z,66496.22
2023-05-02T22:26:27.001Z,66414.25
2023-05-02T22:31:31.446Z,66361.09
2023-05-02T22:36:35.843Z,66328.81
2023-05-02T22:41:41.279Z,66359.22
2023-05-02T22:46:45.745Z,66335.16
2023-05-02T22:51:49.863Z,66317.97
2023-05-02T22:56:55.428Z,66323.91
2023-05-02T23:02:00.586Z,66334.09
2023-05-02T23:07:04.654Z,66366.81
2023-05-02T23:12:09.921Z,66367.97
2023-05-02T23:17:13.795Z,66361.53
2023-05-02T23:22:17.652Z,66364.59
2023-05-02T23:27:23.007Z,66372.16
2023-05-02T23:32:27.166Z,66410.75
2023-05-02T23:37:31.147Z,66403.88
2023-05-02T23:42:40.239Z,66363.59
2023-05-02T23:47:44.611Z,66386.22
2023-05-02T23:52:48.626Z,66428.56
2023-05-02T23:57:53.880Z,66393.75
